Star Markella — V7KL3 — position and weather

sailwx.info

Track history (hours):
 
Tides and Currents Weather Stations Pressure Air Temp Water Temp Dewpoint Dewpoint Depression Visibility Wind Speed Wind Dir Waves Ship Positions

Star Markella

Last reported at 2018-May-29 22:48 UTC. Time now 2018-Jul-17 05:35 UTC.
Position N 01°22' E 103°17'.
Warning: this ship's position is 48 days out of date.

Length 229 m; draft 14.5 m.

Type: Cargo ship. MMSI: 538002640.

Date/timePositionNaut miles runAvg speedWind from/ knotsBaromVisibWave heightAir tempDewpointWater temp
2018-May-29 22:48N 01°22' E 103°17'311.3
2018-May-29 22:29N 01°19' E 103°20'611.4
2018-May-29 22:00N 01°16' E 103°24'610.9
2018-May-29 21:29N 01°14' E 103°29'510.3
2018-May-29 20:59N 01°12' E 103°34'5 9.7
2018-May-29 20:30N 01°11' E 103°38'5 9.2
2018-May-29 20:00N 01°09' E 103°43'3 6.4
2018-May-29 19:29N 01°09' E 103°46'3 7.1
2018-May-29 19:00N 01°11' E 103°49'3 6.2
2018-May-29 18:30N 01°12' E 103°52'4 8.0
2018-May-29 18:00N 01°14' E 103°56'2 4.5
2018-May-29 17:31N 01°16' E 103°57'1 2.2
2018-May-29 17:00N 01°17' E 103°57'0 0.3
2018-May-29 16:19N 01°17' E 103°57'0 0.1
2018-May-29 15:52N 01°17' E 103°57'0 0.0
2018-May-29 15:27N 01°17' E 103°57'0 0.0
2018-May-29 14:55N 01°17' E 103°57'0 0.1
2018-May-29 14:28N 01°17' E 103°57'0 0.1
2018-May-29 14:00N 01°17' E 103°57'0 0.1
2018-May-29 13:30N 01°17' E 103°57'0 0.0
2018-May-29 12:52N 01°17' E 103°57'0 0.0
2018-May-29 12:30N 01°17' E 103°57'0 0.0
2018-May-29 11:49N 01°17' E 103°57'0 0.0
2018-May-29 11:31N 01°17' E 103°57'0 0.0
2018-May-29 11:00N 01°17' E 103°57'0 0.1
2018-May-29 10:22N 01°17' E 103°57'0 0.1
2018-May-29 09:58N 01°17' E 103°57'0 0.1
2018-May-29 09:25N 01°17' E 103°57'0 0.1
2018-May-29 08:52N 01°17' E 103°57'0 0.2
2018-May-29 08:28N 01°17' E 103°57'0 0.0
2018-May-29 07:31N 01°17' E 103°57'0 0.2
2018-May-29 07:16N 01°17' E 103°57'0 0.4
2018-May-29 06:58N 01°17' E 103°57'1 2.5
2018-May-29 06:30N 01°16' E 103°56'2 3.2
2018-May-29 06:00N 01°15' E 103°57'2 4.1
2018-May-29 05:30N 01°16' E 103°59'3 5.7
2018-May-29 05:00N 01°16' E 104°02'3 6.8
2018-May-29 04:30N 01°17' E 104°06'3 7.0
2018-May-29 04:00N 01°17' E 104°09'3 7.0
2018-May-29 03:30N 01°17' E 104°13'4 7.6
2018-May-29 03:00N 01°18' E 104°16'4 7.9
2018-May-29 02:30N 01°19' E 104°20'5 9.5
2018-May-29 01:59N 01°22' E 104°24'5 9.7
2018-May-29 01:27N 01°26' E 104°28'  
Track history (hours):
 
Tides and Currents Weather Stations Pressure Air Temp Water Temp Dewpoint Dewpoint Depression Visibility Wind Speed Wind Dir Waves Ship Positions

Star Markella

Last reported at 2018-May-29 22:48 UTC. Time now 2018-Jul-17 05:35 UTC.
Position N 01°22' E 103°17'.
Warning: this ship's position is 48 days out of date.

Length 229 m; draft 14.5 m.

Type: Cargo ship. MMSI: 538002640.

Date/timePositionNaut miles runAvg speedWind from/ knotsBaromVisibWave heightAir tempDewpointWater temp
2018-May-29 22:48N 01°22' E 103°17'311.3
2018-May-29 22:29N 01°19' E 103°20'611.4
2018-May-29 22:00N 01°16' E 103°24'610.9
2018-May-29 21:29N 01°14' E 103°29'510.3
2018-May-29 20:59N 01°12' E 103°34'5 9.7
2018-May-29 20:30N 01°11' E 103°38'5 9.2
2018-May-29 20:00N 01°09' E 103°43'3 6.4
2018-May-29 19:29N 01°09' E 103°46'3 7.1
2018-May-29 19:00N 01°11' E 103°49'3 6.2
2018-May-29 18:30N 01°12' E 103°52'4 8.0
2018-May-29 18:00N 01°14' E 103°56'2 4.5
2018-May-29 17:31N 01°16' E 103°57'1 2.2
2018-May-29 17:00N 01°17' E 103°57'0 0.3
2018-May-29 16:19N 01°17' E 103°57'0 0.1
2018-May-29 15:52N 01°17' E 103°57'0 0.0
2018-May-29 15:27N 01°17' E 103°57'0 0.0
2018-May-29 14:55N 01°17' E 103°57'0 0.1
2018-May-29 14:28N 01°17' E 103°57'0 0.1
2018-May-29 14:00N 01°17' E 103°57'0 0.1
2018-May-29 13:30N 01°17' E 103°57'0 0.0
2018-May-29 12:52N 01°17' E 103°57'0 0.0
2018-May-29 12:30N 01°17' E 103°57'0 0.0
2018-May-29 11:49N 01°17' E 103°57'0 0.0
2018-May-29 11:31N 01°17' E 103°57'0 0.0
2018-May-29 11:00N 01°17' E 103°57'0 0.1
2018-May-29 10:22N 01°17' E 103°57'0 0.1
2018-May-29 09:58N 01°17' E 103°57'0 0.1
2018-May-29 09:25N 01°17' E 103°57'0 0.1
2018-May-29 08:52N 01°17' E 103°57'0 0.2
2018-May-29 08:28N 01°17' E 103°57'0 0.0
2018-May-29 07:31N 01°17' E 103°57'0 0.2
2018-May-29 07:16N 01°17' E 103°57'0 0.4
2018-May-29 06:58N 01°17' E 103°57'1 2.5
2018-May-29 06:30N 01°16' E 103°56'2 3.2
2018-May-29 06:00N 01°15' E 103°57'2 4.1
2018-May-29 05:30N 01°16' E 103°59'3 5.7
2018-May-29 05:00N 01°16' E 104°02'3 6.8
2018-May-29 04:30N 01°17' E 104°06'3 7.0
2018-May-29 04:00N 01°17' E 104°09'3 7.0
2018-May-29 03:30N 01°17' E 104°13'4 7.6
2018-May-29 03:00N 01°18' E 104°16'4 7.9
2018-May-29 02:30N 01°19' E 104°20'5 9.5
2018-May-29 01:59N 01°22' E 104°24'5 9.7
2018-May-29 01:27N 01°26' E 104°28'  

Dump ship's entire track history